• Join FlightAware (Why Join?)
  • Login
  • US Flag 
09:31AM EDT


 

Airport Tracker/Info


-or-


 

Live Flight TrackerFlight Track Log ✈ DAL3672 ✈ 22-Apr-2013 ✈ KMHT - KDTW

Flight Track Log - Related Links

Times and Time Zones

All times are in EDT time to prevent confusion due to time zone crossing. See the DAL3672 flight status page for this flight to view local times or setup timezone preferences in your user account.

Time Position Orientation Groundspeed Altitude Reporting Facility
EDT Latitude Longitude Course Direction KTS MPH feet Rate Location/Type
12:28PM 43.0169 -71.4206 358° North 217 250 4,500  Level Boston Center
12:29PM 43.0428 -71.5056 293° West 193 222 6,500 2,340 Climbing Boston Center
12:30PM 42.9422 -71.8291 279° West  Level FlightAware Approximate
12:30PM 43.0706 -71.5958 293° West 263 303 9,200  Level Boston Center
12:31PM 42.9500 -71.9615 270° West  Level FlightAware Approximate
12:31PM 43.1044 -71.6978 295° West 292 336 11,100  Level Boston Center
12:32PM 42.9501 -72.0948 270° West  Level FlightAware Approximate
12:32PM 43.1158 -71.8542 276° West 336 387 12,800  Level Boston Center
12:33PM 43.1186 -71.9794 272° West 363 418 14,100 1,620 Climbing Boston Center
12:34PM 43.1231 -72.1386 272° West 383 441 16,100 1,680 Climbing Boston Center
12:35PM 43.1275 -72.2553 273° West 383 441 17,500 1,260 Climbing Boston Center
12:36PM 43.1319 -72.4117 272° West 383 441 18,700 1,500 Climbing Boston Center
12:37PM 43.1361 -72.5511 272° West 383 441 20,500 1,740 Climbing Boston Center
12:38PM 43.1378 -72.7019 271° West 368 423 22,200 1,260 Climbing Boston Center
12:39PM 43.1417 -72.8300 272° West 369 425 23,100 900 Climbing Boston Center
12:40PM 43.1431 -72.9694 271° West 369 425 24,100 960 Climbing Boston Center
12:41PM 43.1467 -73.1117 272° West 369 425 25,100 900 Climbing Boston Center
12:42PM 43.1519 -73.2569 273° West 374 430 26,000 840 Climbing Boston Center
12:43PM 43.1508 -73.4106 269° West 379 436 26,800 660 Climbing Boston Center
12:44PM 43.1536 -73.5586 272° West 384 442 27,400 540 Climbing Boston Center
12:45PM 43.1539 -73.7094 270° West 390 449 27,900 300 Climbing Boston Center
12:46PM 43.1544 -73.8517 270° West 403 464 28,000  Climbing Boston Center
12:47PM 43.1567 -74.0083 271° West 408 470 28,000  Level Boston Center
12:48PM 43.1606 -74.1650 272° West 408 470 28,000  Level Boston Center
12:49PM 43.1600 -74.3272 270° West 418 481 28,000  Level Boston Center
12:50PM 43.1614 -74.4867 271° West 418 481 28,000  Level Boston Center
12:52PM 43.1642 -74.6775 271° West 418 481 28,000  Level Boston Center
12:53PM 43.1644 -74.8711 270° West 418 481 28,000  Level Boston Center
12:54PM 43.1650 -75.0306 270° West 418 481 28,000  Level Boston Center
12:55PM 43.1633 -75.1928 269° West 418 481 28,000  Level Boston Center
12:56PM 43.1656 -75.3581 271° West 423 487 28,000  Level Boston Center
12:57PM 43.1656 -75.5175 270° West 423 487 28,000  Level Boston Center
12:58PM 43.1653 -75.6769 270° West 423 487 28,000  Level Boston Center
12:59PM 43.1644 -75.8419 270° West 423 487 28,000  Level Boston Center
01:01PM 43.1619 -76.1767 270° West 438 504 28,000  Level Cleveland Center
01:02PM 43.1514 -76.3369 265° West 438 504 28,000  Level Cleveland Center
01:03PM 43.1364 -76.4972 263° West 438 504 28,000  Level Cleveland Center
01:04PM 43.1231 -76.6575 264° West 438 504 28,000  Level Cleveland Center
01:05PM 43.1075 -76.8150 262° West 427 491 28,000  Level Cleveland Center
01:06PM 43.0956 -76.9636 264° West 427 491 28,000  Level Cleveland Center
01:07PM 43.0817 -77.1208 263° West 427 491 28,000  Level Cleveland Center
01:08PM 43.0656 -77.2808 262° West 427 491 28,000  Level Cleveland Center
01:09PM 43.0511 -77.4381 263° West 427 491 28,000  Level Cleveland Center
01:10PM 43.0367 -77.5978 263° West 427 491 28,000  Level Cleveland Center
01:11PM 43.0197 -77.7578 262° West 427 491 28,000  Level Cleveland Center
01:12PM 43.0047 -77.9175 263° West 427 491 28,000  Level Cleveland Center
01:13PM 42.9897 -78.0825 263° West 427 491 28,000  Level Cleveland Center
01:14PM 42.9722 -78.2394 261° West 427 491 28,000  Level Cleveland Center
01:15PM 42.9564 -78.4017 262° West 427 491 28,000  Level Cleveland Center
01:16PM 42.9386 -78.5611 261° West 427 491 28,000  Level Cleveland Center
01:17PM 42.9206 -78.7233 261° West 427 491 28,000  Level Cleveland Center
01:18PM 42.8981 -78.8856 259° West 427 491 28,000  Level Cleveland Center
01:19PM 42.8711 -79.0450 257° West 432 497 28,000  Level Cleveland Center
01:20PM 42.8500 -79.2069 260° West 432 497 28,000  Level Cleveland Center
01:21PM 42.8269 -79.3658 259° West 432 497 28,000  Level Cleveland Center
01:22PM 42.8014 -79.5419 259° West 432 497 28,000  Level Cleveland Center
01:23PM 42.7819 -79.6864 260° West 432 497 28,000  Level Cleveland Center
01:24PM 42.7558 -79.8481 258° West 432 497 28,000  Level Cleveland Center
01:25PM 42.7444 -80.0292 265° West 439 505 28,000  Level Cleveland Center
01:26PM 42.7389 -80.1989 268° West 444 511 28,000  Level Cleveland Center
01:27PM 42.7289 -80.3569 265° West 439 505 28,000  Level Cleveland Center
01:28PM 42.7250 -80.5125 268° West 447 514 28,000 -180 Level Cleveland Center
01:29PM 42.7164 -80.6708 266° West 440 506 27,700 -660 Descending Cleveland Center
01:30PM 42.7100 -80.8403 267° West 440 506 26,700 -960 Descending Cleveland Center
01:31PM 42.6969 -81.0153 264° West 440 506 25,800 -1,020 Descending Cleveland Center
01:32PM 42.6775 -81.1564 259° West 445 512 24,700 -900 Descending Cleveland Center
01:33PM 42.6600 -81.3200 262° West 445 512 24,000 -360 Descending Cleveland Center
01:34PM 42.6400 -81.4778 260° West 445 512 24,000  Level Cleveland Center
01:35PM 42.6181 -81.6383 260° West 440 506 24,000 -600 Level Cleveland Center
01:36PM 42.5975 -81.8158 261° West 440 506 22,900 -1,920 Descending Cleveland Center
01:37PM 42.5789 -81.9706 261° West 434 499 20,200 -2,640 Descending Cleveland Center
01:38PM 42.5625 -82.1167 261° West 422 486 17,600 -2,940 Descending Cleveland Center
01:38PM 42.5531 -82.1983 261° West 399 459 15,800 -3,000 Descending Cleveland Center
01:39PM 42.5417 -82.2656 257° West 410 472 14,600 -3,060 Descending Cleveland Center
01:39PM 42.5344 -82.3331 262° West 383 441 13,000 -2,580 Descending Cleveland Center
01:40PM 42.5250 -82.4031 260° West 398 458 12,100 -1,020 Descending Cleveland Center
01:40PM 42.5200 -82.4622 263° West 329 379 12,000 -120 Descending Cleveland Center
01:41PM 42.5106 -82.5211 258° West 362 417 12,000  Level Cleveland Center
01:41PM 42.4972 -82.5714 250° West 291 335 12,000 -540 Level Cleveland Center
01:42PM 42.4797 -82.6242 246° West 321 369 11,500 -1,080 Descending Cleveland Center
01:42PM 42.4578 -82.6856 244° Southwest 297 342 10,800 -1,020 Descending Cleveland Center
01:43PM 42.4444 -82.7244 245° Southwest 306 352 10,500 -1,020 Descending Cleveland Center
01:43PM 42.4244 -82.7856 246° West 293 337 9,800 -1,020 Descending Cleveland Center
01:44PM 42.4133 -82.8247 249° West 293 337 9,500 -1,020 Descending Cleveland Center
01:44PM 42.4161 -82.8950 273° West 285 328 8,800 -1,020 Descending Cleveland Center
01:45PM 42.4092 -82.9314 256° West 283 326 8,500 -1,020 Descending Cleveland Center
01:45PM 42.3975 -82.9872 254° West 280 322 7,900 -1,020 Descending Cleveland Center
01:46PM 42.3861 -83.0317 251° West 283 326 7,500 -1,320 Descending Cleveland Center
01:46PM 42.3806 -83.0989 264° West 278 320 6,500 -1,560 Descending Cleveland Center
01:47PM 42.3853 -83.1389 279° West 264 304 5,900 -1,140 Descending FAA TRACON SMA TRACON (SMA)
01:47PM 42.3869 -83.1650 275° West 241 277 5,700 -900 Descending FAA TRACON SMA TRACON (SMA)
01:47PM 42.3858 -83.1956 267° West 215 247 5,300 -1,200 Descending FAA TRACON SMA TRACON (SMA)
01:48PM 42.3742 -83.2158 232° Southwest 186 214 4,900 -1,500 Descending FAA TRACON SMA TRACON (SMA)
01:48PM 42.3633 -83.2283 220° Southwest 186 214 4,300 -1,980 Descending FAA TRACON SMA TRACON (SMA)
01:48PM 42.3469 -83.2422 212° Southwest 183 211 3,600 -2,100 Descending FAA TRACON SMA TRACON (SMA)